Time;durP1;ratioP1;P1;durP2;ratioP2;P2;SDS_P1;SDS_P2;PMS_P1;PMS_P2;Temp;Humidity;BMP_temperature;BMP_pressure;BME280_temperature;BME280_humidity;BME280_pressure;Samples;Min_cycle;Max_cycle;Signal;HPM_P1;HPM_P2
2022/02/22 00:00:11;;;;;;;15.07;1.73;;;;;;;-146.41;100.00;57768.22;4984444;28;20142;-68
2022/02/22 00:02:39;;;;;;;9.43;1.15;;;;;;;-146.41;100.00;57768.22;4982352;28;20133;-68
2022/02/22 00:05:08;;;;;;;10.80;1.50;;;;;;;-146.41;100.00;57768.22;4971284;28;20069;-66
2022/02/22 00:07:36;;;;;;;15.57;1.88;;;;;;;-146.41;100.00;57768.22;4981724;28;20542;-67
2022/02/22 00:10:04;;;;;;;10.40;1.20;;;;;;;-146.41;100.00;57768.22;4978544;28;20050;-66
2022/02/22 00:12:32;;;;;;;13.43;1.20;;;;;;;-146.41;100.00;57768.22;4968613;28;20145;-67
2022/02/22 00:15:00;;;;;;;14.27;1.98;;;;;;;-146.41;100.00;57768.22;4983820;28;20105;-67
2022/02/22 00:17:28;;;;;;;17.30;2.20;;;;;;;-146.41;100.00;57768.22;4978444;28;20054;-66
2022/02/22 00:19:56;;;;;;;15.65;2.00;;;;;;;-146.41;100.00;57768.22;4980756;28;20042;-67
2022/02/22 00:22:23;;;;;;;11.90;1.50;;;;;;;-146.41;100.00;57768.22;4980244;28;20070;-66
2022/02/22 00:24:50;;;;;;;10.65;1.88;;;;;;;-146.41;100.00;57768.22;4976659;28;20220;-66
2022/02/22 00:27:18;;;;;;;12.02;1.58;;;;;;;-146.41;100.00;57768.22;4978613;28;20082;-66
2022/02/22 00:29:46;;;;;;;11.50;1.40;;;;;;;-146.41;100.00;57768.22;4978937;28;20148;-66
2022/02/22 00:32:13;;;;;;;14.60;1.45;;;;;;;-146.41;100.00;57768.22;4977760;28;20225;-66
2022/02/22 00:34:41;;;;;;;11.57;1.63;;;;;;;-146.41;100.00;57768.22;4978059;28;20341;-67
2022/02/22 00:37:08;;;;;;;10.38;1.35;;;;;;;-146.41;100.00;57768.22;4978278;28;20144;-66
2022/02/22 00:39:35;;;;;;;13.63;1.58;;;;;;;-146.41;100.00;57768.22;4979384;28;20449;-66
2022/02/22 00:42:03;;;;;;;12.93;1.55;;;;;;;-146.41;100.00;57768.22;4979074;28;20129;-66
2022/02/22 00:44:31;;;;;;;15.20;1.40;;;;;;;-146.41;100.00;57768.22;4971715;28;20527;-67
2022/02/22 00:47:00;;;;;;;12.25;1.67;;;;;;;-146.41;100.00;57768.22;4975946;28;20062;-66
2022/02/22 00:49:27;;;;;;;9.40;1.13;;;;;;;-146.41;100.00;57768.22;4975786;28;20169;-66
2022/02/22 00:51:55;;;;;;;9.88;1.45;;;;;;;-146.41;100.00;57768.22;4974691;28;20129;-66
2022/02/22 00:54:22;;;;;;;11.73;1.70;;;;;;;-146.41;100.00;57768.22;4978807;28;20055;-66
2022/02/22 00:56:50;;;;;;;17.83;1.83;;;;;;;-146.41;100.00;57768.22;4965646;28;20129;-66
2022/02/22 00:59:17;;;;;;;14.13;1.70;;;;;;;-146.41;100.00;57768.22;4976646;28;20148;-67
2022/02/22 01:01:44;;;;;;;12.63;1.25;;;;;;;-146.41;100.00;57768.22;4980428;28;20134;-66
2022/02/22 01:04:12;;;;;;;7.20;1.10;;;;;;;-146.41;100.00;57768.22;4980818;28;20131;-66
2022/02/22 01:06:39;;;;;;;10.20;1.50;;;;;;;-146.41;100.00;57768.22;4977688;28;20097;-66
2022/02/22 01:09:07;;;;;;;15.10;1.50;;;;;;;-146.41;100.00;57768.22;4978699;28;20541;-66
2022/02/22 01:11:36;;;;;;;13.38;1.77;;;;;;;-146.41;100.00;57768.22;4979725;28;20125;-66
2022/02/22 01:14:04;;;;;;;12.88;1.70;;;;;;;-146.41;100.00;57768.22;4978341;28;20142;-66
2022/02/22 01:16:32;;;;;;;12.38;1.85;;;;;;;-146.41;100.00;57768.22;4979050;28;20054;-66
2022/02/22 01:18:59;;;;;;;15.75;1.50;;;;;;;-146.41;100.00;57768.22;4974679;28;20514;-66
2022/02/22 01:21:27;;;;;;;12.88;1.77;;;;;;;-146.41;100.00;57768.22;4977243;28;20050;-66
2022/02/22 01:23:55;;;;;;;18.13;2.90;;;;;;;-146.41;100.00;57768.22;4976192;28;20073;-66
2022/02/22 01:26:24;;;;;;;11.63;2.15;;;;;;;-146.41;100.00;57768.22;4977373;28;20133;-66
2022/02/22 01:28:51;;;;;;;21.13;2.78;;;;;;;-146.41;100.00;57768.22;4977761;28;20545;-66
2022/02/22 01:31:19;;;;;;;20.92;2.38;;;;;;;-146.41;100.00;57768.22;4977183;28;20524;-66
2022/02/22 01:33:46;;;;;;;11.55;2.13;;;;;;;-146.41;100.00;57768.22;4979625;28;20042;-67
2022/02/22 01:36:14;;;;;;;13.38;2.45;;;;;;;-146.41;100.00;57768.22;4979548;28;20519;-66
2022/02/22 01:38:41;;;;;;;13.00;1.83;;;;;;;-146.41;100.00;57768.22;4970501;28;20086;-66
2022/02/22 01:41:08;;;;;;;16.30;1.83;;;;;;;-146.41;100.00;57768.22;4970111;28;20093;-66
2022/02/22 01:43:39;;;;;;;9.98;1.33;;;;;;;-146.41;100.00;57768.22;4976982;28;20141;-66
2022/02/22 01:46:08;;;;;;;9.75;1.40;;;;;;;-146.41;100.00;57768.22;4972981;28;20089;-66
2022/02/22 01:48:35;;;;;;;11.02;1.63;;;;;;;-146.41;100.00;57768.22;4978824;28;20230;-66
2022/02/22 01:51:03;;;;;;;10.95;1.95;;;;;;;-146.41;100.00;57768.22;4970334;28;20145;-66
2022/02/22 01:53:30;;;;;;;11.30;1.50;;;;;;;-146.41;100.00;57768.22;4979151;28;20047;-66
2022/02/22 01:55:58;;;;;;;10.45;1.65;;;;;;;-146.41;100.00;57768.22;4975155;28;20078;-67
2022/02/22 01:58:26;;;;;;;9.77;1.65;;;;;;;-146.41;100.00;57768.22;4979226;28;20246;-66
2022/02/22 02:00:54;;;;;;;10.52;1.83;;;;;;;-146.41;100.00;57768.22;4977944;28;20080;-67
2022/02/22 02:03:22;;;;;;;12.30;1.77;;;;;;;-146.41;100.00;57768.22;4978270;28;20502;-66
2022/02/22 02:05:49;;;;;;;8.27;1.40;;;;;;;-146.41;100.00;57768.22;4975602;28;20153;-66
2022/02/22 02:08:16;;;;;;;10.20;1.63;;;;;;;-146.41;100.00;57768.22;4977489;28;20090;-66
2022/02/22 02:10:44;;;;;;;11.23;1.55;;;;;;;-146.41;100.00;57768.22;4978396;28;20046;-67
2022/02/22 02:13:14;;;;;;;7.05;1.20;;;;;;;-146.41;100.00;57768.22;4974704;28;20121;-67
2022/02/22 02:15:41;;;;;;;10.25;1.90;;;;;;;-146.41;100.00;57768.22;4976873;28;20043;-67
2022/02/22 02:18:09;;;;;;;11.23;1.73;;;;;;;-146.41;100.00;57768.22;4973249;28;20045;-67
2022/02/22 02:20:36;;;;;;;19.80;1.92;;;;;;;-146.41;100.00;57768.22;4974266;28;20046;-67
2022/02/22 02:23:04;;;;;;;9.40;1.40;;;;;;;-146.41;100.00;57768.22;4972535;28;20419;-67
2022/02/22 02:25:31;;;;;;;13.85;1.65;;;;;;;-146.41;100.00;57768.22;4976567;28;20093;-67
2022/02/22 02:27:58;;;;;;;8.60;1.58;;;;;;;-146.41;100.00;57768.22;4975592;28;20129;-67
2022/02/22 02:30:26;;;;;;;13.30;1.55;;;;;;;-146.41;100.00;57768.22;4977288;28;20094;-67
2022/02/22 02:32:53;;;;;;;14.00;1.83;;;;;;;-146.41;100.00;57768.22;4959546;28;20121;-67
2022/02/22 02:35:20;;;;;;;10.50;1.40;;;;;;;-146.41;100.00;57768.22;4974680;28;20081;-67
2022/02/22 02:37:48;;;;;;;12.73;1.80;;;;;;;-146.41;100.00;57768.22;4976006;28;20514;-67
2022/02/22 02:40:35;;;;;;;17.63;2.35;;;;;;;-146.41;100.00;57768.22;4973434;28;20054;-67
2022/02/22 02:43:03;;;;;;;14.93;2.25;;;;;;;-146.41;100.00;57768.22;4983337;28;20474;-66
2022/02/22 02:45:33;;;;;;;11.77;1.70;;;;;;;-146.41;100.00;57768.22;4979463;28;20058;-67
2022/02/22 02:48:00;;;;;;;12.32;2.08;;;;;;;-146.41;100.00;57768.22;4976936;28;20137;-67
2022/02/22 02:50:27;;;;;;;12.25;2.15;;;;;;;-146.41;100.00;57768.22;4981666;28;20543;-67
2022/02/22 02:52:55;;;;;;;12.70;2.47;;;;;;;-146.41;100.00;57768.22;4981331;28;20150;-67
2022/02/22 02:55:22;;;;;;;16.92;2.03;;;;;;;-146.41;100.00;57768.22;4979510;28;20059;-67
2022/02/22 02:57:50;;;;;;;12.82;2.40;;;;;;;-146.41;100.00;57768.22;4975961;28;20115;-67
2022/02/22 03:00:18;;;;;;;13.07;2.05;;;;;;;-146.41;100.00;57768.22;4977523;28;20751;-67
2022/02/22 03:02:46;;;;;;;11.45;1.67;;;;;;;-146.41;100.00;57768.22;4975997;28;20313;-67
2022/02/22 03:05:13;;;;;;;15.02;1.95;;;;;;;-146.41;100.00;57768.22;4977467;28;20059;-67
2022/02/22 03:07:40;;;;;;;9.98;2.10;;;;;;;-146.41;100.00;57768.22;4975259;28;20105;-67
2022/02/22 03:10:08;;;;;;;7.63;1.60;;;;;;;-146.41;100.00;57768.22;4982670;28;20058;-67
2022/02/22 03:12:36;;;;;;;13.82;1.48;;;;;;;-146.41;100.00;57768.22;4983567;28;20050;-67
2022/02/22 03:15:04;;;;;;;11.07;1.80;;;;;;;-146.41;100.00;57768.22;4986472;28;20082;-67
2022/02/22 03:17:31;;;;;;;11.75;2.00;;;;;;;-146.41;100.00;57768.22;4981046;28;20081;-67
2022/02/22 03:19:58;;;;;;;14.30;1.88;;;;;;;-146.41;100.00;57768.22;4981396;28;20092;-67
2022/02/22 03:22:26;;;;;;;8.40;1.38;;;;;;;-146.41;100.00;57768.22;4976406;28;20141;-67
2022/02/22 03:24:54;;;;;;;8.20;1.60;;;;;;;-146.41;100.00;57768.22;4977633;28;20055;-67
2022/02/22 03:27:21;;;;;;;7.38;1.50;;;;;;;-146.41;100.00;57768.22;4984764;28;20125;-67
2022/02/22 03:29:48;;;;;;;12.85;2.05;;;;;;;-146.41;100.00;57768.22;4981053;28;20142;-67
2022/02/22 03:32:16;;;;;;;11.57;1.65;;;;;;;-146.41;100.00;57768.22;4984650;28;20158;-67
2022/02/22 03:34:43;;;;;;;12.13;1.95;;;;;;;-146.41;100.00;57768.22;4979690;28;20133;-67
2022/02/22 03:37:10;;;;;;;9.73;1.45;;;;;;;-146.41;100.00;57768.22;4980125;28;20236;-67
2022/02/22 03:39:38;;;;;;;10.00;1.48;;;;;;;-146.41;100.00;57768.22;4972332;28;20255;-67
2022/02/22 03:42:05;;;;;;;9.10;1.45;;;;;;;-146.41;100.00;57768.22;4987789;28;20046;-67
2022/02/22 03:44:33;;;;;;;9.32;1.95;;;;;;;-146.41;100.00;57768.22;4979221;28;20308;-67
2022/02/22 03:47:00;;;;;;;15.68;2.08;;;;;;;-146.41;100.00;57768.22;4966385;28;20082;-67
2022/02/22 03:49:28;;;;;;;14.95;2.05;;;;;;;-146.41;100.00;57768.22;4983757;28;20057;-67
2022/02/22 03:51:55;;;;;;;13.25;2.25;;;;;;;-146.41;100.00;57768.22;4979931;28;20054;-67
2022/02/22 03:54:22;;;;;;;13.55;1.80;;;;;;;-146.41;100.00;57768.22;4971325;28;20074;-67
2022/02/22 03:56:50;;;;;;;12.40;1.92;;;;;;;-146.41;100.00;57768.22;4980352;28;20074;-67
2022/02/22 03:59:17;;;;;;;11.35;1.77;;;;;;;-146.41;100.00;57768.22;4980310;28;20514;-67
2022/02/22 04:01:45;;;;;;;15.75;2.03;;;;;;;-146.41;100.00;57768.22;4977787;28;20542;-67
2022/02/22 04:04:13;;;;;;;11.73;1.63;;;;;;;-146.41;100.00;57768.22;4979873;28;20209;-67
2022/02/22 04:06:40;;;;;;;10.57;1.95;;;;;;;-146.41;100.00;57768.22;4979769;28;20078;-67
2022/02/22 04:09:08;;;;;;;11.77;1.67;;;;;;;-146.41;100.00;57768.22;4979079;28;20126;-67
2022/02/22 04:11:35;;;;;;;13.68;2.13;;;;;;;-146.41;100.00;57768.22;4981143;28;20152;-67
2022/02/22 04:14:03;;;;;;;10.48;2.13;;;;;;;-146.41;100.00;57768.22;4983347;28;20546;-67
2022/02/22 04:16:30;;;;;;;10.50;1.80;;;;;;;-146.41;100.00;57768.22;4983488;28;21564;-67
2022/02/22 04:18:57;;;;;;;12.02;1.65;;;;;;;-146.41;100.00;57768.22;4981133;28;20234;-67
2022/02/22 04:21:25;;;;;;;10.60;1.85;;;;;;;-146.41;100.00;57768.22;4979432;28;20055;-67
2022/02/22 04:23:52;;;;;;;12.88;1.42;;;;;;;-146.41;100.00;57768.22;4980429;28;20144;-67
2022/02/22 04:26:20;;;;;;;13.35;1.83;;;;;;;-146.41;100.00;57768.22;4979907;28;20082;-67
2022/02/22 04:28:52;;;;;;;9.30;1.55;;;;;;;-146.41;100.00;57768.22;4985291;28;20133;-67
2022/02/22 04:31:20;;;;;;;16.88;1.95;;;;;;;-146.41;100.00;57768.22;4986123;28;20554;-67
2022/02/22 04:33:47;;;;;;;14.10;1.85;;;;;;;-146.41;100.00;57768.22;4984246;28;20141;-67
2022/02/22 04:36:14;;;;;;;9.45;1.92;;;;;;;-146.41;100.00;57768.22;4977769;28;20054;-67
2022/02/22 04:38:42;;;;;;;10.10;1.77;;;;;;;-146.41;100.00;57768.22;4979495;28;20139;-67
2022/02/22 04:41:09;;;;;;;10.65;1.75;;;;;;;-146.41;100.00;57768.22;4980525;28;20555;-67
2022/02/22 04:43:36;;;;;;;14.45;1.88;;;;;;;-146.41;100.00;57768.22;4970980;28;20049;-67
2022/02/22 04:46:04;;;;;;;12.65;3.55;;;;;;;-146.41;100.00;57768.22;4979449;28;20060;-66
2022/02/22 04:48:31;;;;;;;18.35;3.28;;;;;;;-146.41;100.00;57768.22;4974718;28;20775;-67
2022/02/22 04:50:59;;;;;;;16.77;3.28;;;;;;;-146.41;100.00;57768.22;4977268;28;20080;-67
2022/02/22 04:53:26;;;;;;;14.63;4.07;;;;;;;-146.41;100.00;57768.22;4977601;28;20166;-67
2022/02/22 04:55:54;;;;;;;13.07;2.72;;;;;;;-146.41;100.00;57768.22;4981424;28;20137;-66
2022/02/22 04:58:21;;;;;;;15.07;3.35;;;;;;;-146.41;100.00;57768.22;4979269;28;20451;-66
2022/02/22 05:00:50;;;;;;;16.42;4.50;;;;;;;-146.41;100.00;57768.22;4979764;28;20074;-67
2022/02/22 05:03:18;;;;;;;13.98;4.32;;;;;;;-146.41;100.00;57768.22;4979567;28;20129;-68
2022/02/22 05:05:46;;;;;;;19.23;4.95;;;;;;;-146.41;100.00;57768.22;4976537;28;20054;-66
2022/02/22 05:08:13;;;;;;;19.10;5.90;;;;;;;-146.41;100.00;57768.22;4982389;28;20145;-66
2022/02/22 05:10:41;;;;;;;15.07;5.45;;;;;;;-146.41;100.00;57768.22;4976795;28;20136;-66
2022/02/22 05:13:08;;;;;;;15.23;5.70;;;;;;;-146.41;100.00;57768.22;4977615;28;20122;-66
2022/02/22 05:15:36;;;;;;;24.55;5.30;;;;;;;-146.41;100.00;57768.22;4973043;28;20428;-66
2022/02/22 05:18:04;;;;;;;21.15;5.82;;;;;;;-146.41;100.00;57768.22;4978524;28;20046;-66
2022/02/22 05:20:32;;;;;;;17.30;5.18;;;;;;;-146.41;100.00;57768.22;4964062;28;20153;-66
2022/02/22 05:22:59;;;;;;;15.85;4.75;;;;;;;-146.41;100.00;57768.22;4976850;28;20064;-66
2022/02/22 05:25:27;;;;;;;18.73;4.97;;;;;;;-146.41;100.00;57768.22;4975934;28;20081;-66
2022/02/22 05:27:54;;;;;;;12.07;4.80;;;;;;;-146.41;100.00;57768.22;4977513;28;20129;-66
2022/02/22 05:30:22;;;;;;;16.55;4.05;;;;;;;-146.41;100.00;57768.22;4982060;28;20141;-66
2022/02/22 05:32:49;;;;;;;17.38;4.20;;;;;;;-146.41;100.00;57768.22;4978474;28;20266;-66
2022/02/22 05:35:17;;;;;;;18.27;4.30;;;;;;;-146.41;100.00;57768.22;4979031;28;20141;-66
2022/02/22 05:37:44;;;;;;;12.20;3.58;;;;;;;-146.41;100.00;57768.22;4972941;28;20710;-67
2022/02/22 05:40:12;;;;;;;17.73;4.10;;;;;;;-146.41;100.00;57768.22;4977577;28;20212;-67
2022/02/22 05:42:40;;;;;;;17.65;4.28;;;;;;;-146.41;100.00;57768.22;4979376;28;20542;-66
2022/02/22 05:45:07;;;;;;;18.40;4.57;;;;;;;-146.41;100.00;57768.22;4977290;28;20443;-67
2022/02/22 05:47:35;;;;;;;17.25;4.20;;;;;;;-146.41;100.00;57768.22;4975465;28;20085;-67
2022/02/22 05:50:02;;;;;;;19.55;4.55;;;;;;;-146.41;100.00;57768.22;4974602;28;20544;-67
2022/02/22 05:52:30;;;;;;;16.52;3.85;;;;;;;-146.41;100.00;57768.22;4977422;28;20105;-67
2022/02/22 05:54:57;;;;;;;16.13;3.72;;;;;;;-146.41;100.00;57768.22;4966298;28;20047;-67
2022/02/22 05:57:25;;;;;;;18.40;4.32;;;;;;;-146.41;100.00;57768.22;4982963;28;20558;-67
2022/02/22 05:59:53;;;;;;;18.95;4.13;;;;;;;-146.41;100.00;57768.22;4978105;28;20078;-67
2022/02/22 06:02:20;;;;;;;21.33;5.00;;;;;;;-146.41;100.00;57768.22;4981517;28;20065;-67
2022/02/22 06:04:48;;;;;;;14.60;4.90;;;;;;;-146.41;100.00;57768.22;4974435;28;20043;-67
2022/02/22 06:07:20;;;;;;;22.17;5.28;;;;;;;-146.41;100.00;57768.22;4977989;28;20051;-67
2022/02/22 06:09:48;;;;;;;14.10;5.05;;;;;;;-146.41;100.00;57768.22;4983080;28;20105;-67
2022/02/22 06:12:18;;;;;;;20.05;5.28;;;;;;;-146.41;100.00;57768.22;4970133;28;20392;-67
2022/02/22 06:14:45;;;;;;;25.05;5.60;;;;;;;-146.41;100.00;57768.22;4978477;28;20053;-67
2022/02/22 06:17:12;;;;;;;22.58;6.63;;;;;;;-146.41;100.00;57768.22;4976387;28;20493;-67
2022/02/22 06:19:40;;;;;;;19.25;4.63;;;;;;;-146.41;100.00;57768.22;4979522;28;20129;-67
2022/02/22 06:22:07;;;;;;;22.52;5.72;;;;;;;-146.41;100.00;57768.22;4973866;28;20130;-67
2022/02/22 06:24:35;;;;;;;20.90;5.18;;;;;;;-146.41;100.00;57768.22;4982208;28;20140;-67
2022/02/22 06:27:02;;;;;;;18.23;5.53;;;;;;;-146.41;100.00;57768.22;4963457;28;20173;-67
2022/02/22 06:29:30;;;;;;;20.88;4.72;;;;;;;-146.41;100.00;57768.22;4980528;28;20466;-67
2022/02/22 06:31:59;;;;;;;18.60;5.20;;;;;;;-146.41;100.00;57768.22;4981643;28;20241;-67
2022/02/22 06:34:27;;;;;;;18.23;4.90;;;;;;;-146.41;100.00;57768.22;4978094;28;20125;-67
2022/02/22 06:36:55;;;;;;;21.15;4.45;;;;;;;-146.41;100.00;57768.22;4981422;28;20050;-67
2022/02/22 06:39:25;;;;;;;16.63;5.43;;;;;;;-146.41;100.00;57768.22;4982902;28;20192;-67
2022/02/22 06:41:52;;;;;;;22.48;5.32;;;;;;;-146.41;100.00;57768.22;4978819;28;20553;-67
2022/02/22 06:44:20;;;;;;;20.98;5.45;;;;;;;-146.41;100.00;57768.22;4979813;28;20076;-67
2022/02/22 06:46:47;;;;;;;16.75;4.53;;;;;;;-146.41;100.00;57768.22;4983039;28;20146;-67
2022/02/22 06:49:15;;;;;;;17.92;5.13;;;;;;;-146.41;100.00;57768.22;4985604;28;20185;-67
2022/02/22 06:51:42;;;;;;;23.48;5.03;;;;;;;-146.41;100.00;57768.22;4983050;28;20582;-67
2022/02/22 06:54:09;;;;;;;21.50;4.60;;;;;;;-146.41;100.00;57768.22;4986383;28;20050;-66
2022/02/22 06:56:37;;;;;;;14.85;5.13;;;;;;;-146.41;100.00;57768.22;4985995;28;20046;-66
2022/02/22 06:59:04;;;;;;;19.85;4.45;;;;;;;-146.41;100.00;57768.22;4983660;28;20141;-67
2022/02/22 07:01:31;;;;;;;23.10;5.70;;;;;;;-146.41;100.00;57768.22;4979024;28;20072;-67
2022/02/22 07:03:59;;;;;;;17.90;5.28;;;;;;;-146.41;100.00;57768.22;4969196;28;20046;-67
2022/02/22 07:06:26;;;;;;;19.23;5.18;;;;;;;-146.41;100.00;57768.22;4977918;28;20137;-67
2022/02/22 07:08:54;;;;;;;16.52;4.25;;;;;;;-146.41;100.00;57768.22;4980911;28;20455;-66
2022/02/22 07:11:21;;;;;;;18.30;4.68;;;;;;;-146.41;100.00;57768.22;4983070;28;20061;-67
2022/02/22 07:13:49;;;;;;;16.85;4.47;;;;;;;-146.41;100.00;57768.22;4982498;28;20129;-67
2022/02/22 07:16:16;;;;;;;21.42;4.72;;;;;;;-146.41;100.00;57768.22;4972131;28;20054;-67
2022/02/22 07:18:45;;;;;;;20.00;5.07;;;;;;;-146.41;100.00;57768.22;4983274;28;20043;-67
2022/02/22 07:21:13;;;;;;;14.70;4.28;;;;;;;-146.41;100.00;57768.22;4985583;28;20054;-67
2022/02/22 07:23:41;;;;;;;17.33;3.60;;;;;;;-146.41;100.00;57768.22;4982040;28;20089;-67
2022/02/22 07:26:08;;;;;;;19.42;4.38;;;;;;;-146.41;100.00;57768.22;4983543;28;20043;-66
2022/02/22 07:28:38;;;;;;;17.02;3.92;;;;;;;-146.41;100.00;57768.22;4985586;28;20051;-67
2022/02/22 07:31:06;;;;;;;15.88;4.30;;;;;;;-146.41;100.00;57768.22;4981206;28;20051;-67
2022/02/22 07:33:34;;;;;;;14.85;4.03;;;;;;;-146.41;100.00;57768.22;4984282;28;20165;-67
2022/02/22 07:36:01;;;;;;;23.60;4.43;;;;;;;-146.41;100.00;57768.22;4982645;28;20050;-67
2022/02/22 07:38:28;;;;;;;13.27;3.72;;;;;;;-146.41;100.00;57768.22;4981843;28;20050;-67
2022/02/22 07:40:56;;;;;;;17.65;4.35;;;;;;;-146.41;100.00;57768.22;4980187;28;20553;-67
2022/02/22 07:43:24;;;;;;;25.75;3.65;;;;;;;-146.41;100.00;57768.22;4970609;28;20145;-67
2022/02/22 07:45:51;;;;;;;16.88;4.00;;;;;;;-146.41;100.00;57768.22;4986232;28;20081;-67
2022/02/22 07:48:19;;;;;;;17.48;3.33;;;;;;;-146.41;100.00;57768.22;4978588;28;20129;-67
2022/02/22 07:50:47;;;;;;;20.73;3.80;;;;;;;-146.41;100.00;57768.22;4979350;28;20046;-67
2022/02/22 07:53:15;;;;;;;14.60;3.03;;;;;;;-146.41;100.00;57768.22;4979768;28;20118;-66
2022/02/22 07:55:45;;;;;;;14.57;3.88;;;;;;;-146.41;100.00;57768.22;4982633;28;20050;-67
2022/02/22 07:58:12;;;;;;;20.23;3.90;;;;;;;-146.41;100.00;57768.22;4982508;28;20621;-67
2022/02/22 08:00:41;;;;;;;25.85;3.58;;;;;;;-146.41;100.00;57768.22;4982059;28;20055;-67
2022/02/22 08:03:08;;;;;;;16.98;3.72;;;;;;;-146.41;100.00;57768.22;4979531;28;20059;-66
2022/02/22 08:05:36;;;;;;;17.08;3.92;;;;;;;-146.41;100.00;57768.22;4982812;28;20233;-66
2022/02/22 08:08:05;;;;;;;21.23;4.25;;;;;;;-146.41;100.00;57768.22;4966764;28;20058;-66
2022/02/22 08:10:32;;;;;;;14.45;3.38;;;;;;;-146.41;100.00;57768.22;4983745;28;20166;-66
2022/02/22 08:13:00;;;;;;;23.63;4.47;;;;;;;-146.41;100.00;57768.22;4986671;28;20517;-67
2022/02/22 08:15:27;;;;;;;24.58;4.15;;;;;;;-146.41;100.00;57768.22;4981975;28;20100;-67
2022/02/22 08:17:55;;;;;;;19.58;4.15;;;;;;;-146.41;100.00;57768.22;4986113;28;20145;-67
2022/02/22 08:20:22;;;;;;;20.73;4.03;;;;;;;-146.41;100.00;57768.22;4981281;28;20077;-67
2022/02/22 08:22:53;;;;;;;16.17;3.72;;;;;;;-146.41;100.00;57768.22;4982024;28;20132;-67
2022/02/22 08:25:21;;;;;;;14.07;3.38;;;;;;;-146.41;100.00;57768.22;4981278;28;20074;-67
2022/02/22 08:27:48;;;;;;;17.65;4.22;;;;;;;-146.41;100.00;57768.22;4980697;28;20140;-67
2022/02/22 08:30:16;;;;;;;13.57;3.50;;;;;;;-146.41;100.00;57768.22;4982175;28;20467;-67
2022/02/22 08:32:43;;;;;;;20.35;5.35;;;;;;;-146.41;100.00;57768.22;4979580;28;20065;-67
2022/02/22 08:35:11;;;;;;;26.73;3.60;;;;;;;-146.41;100.00;57768.22;4985327;28;20082;-67
2022/02/22 08:37:38;;;;;;;16.50;3.35;;;;;;;-146.41;100.00;57768.22;4977217;28;20144;-67
2022/02/22 08:40:06;;;;;;;22.15;4.03;;;;;;;-146.41;100.00;57768.22;4975339;28;20055;-67
2022/02/22 08:42:39;;;;;;;17.77;3.80;;;;;;;-146.41;100.00;57768.22;4981949;28;20046;-67
2022/02/22 08:45:20;;;;;;;15.63;3.63;;;;;;;-146.41;100.00;57768.22;4979735;28;20043;-67
2022/02/22 08:47:48;;;;;;;17.00;3.97;;;;;;;-146.41;100.00;57768.22;4980535;28;20146;-67
2022/02/22 08:50:19;;;;;;;11.90;3.60;;;;;;;-146.41;100.00;57768.22;4981162;28;20062;-67
2022/02/22 08:52:46;;;;;;;15.23;3.22;;;;;;;-146.41;100.00;57768.22;4980274;28;20133;-67
2022/02/22 08:55:14;;;;;;;19.75;3.63;;;;;;;-146.41;100.00;57768.22;4980106;28;20058;-67
2022/02/22 08:57:42;;;;;;;16.80;4.15;;;;;;;-146.41;100.00;57768.22;4979108;28;20065;-67
2022/02/22 09:00:11;;;;;;;22.50;4.72;;;;;;;-146.41;100.00;57768.22;4984622;28;20161;-67
2022/02/22 09:02:42;;;;;;;17.88;5.03;;;;;;;-146.41;100.00;57768.22;4978058;28;20154;-67
2022/02/22 09:05:10;;;;;;;25.00;5.45;;;;;;;-146.41;100.00;57768.22;4982651;28;20054;-67
2022/02/22 09:07:38;;;;;;;19.55;4.32;;;;;;;-146.41;100.00;57768.22;4981981;28;20590;-67
2022/02/22 09:10:07;;;;;;;20.10;3.92;;;;;;;-146.41;100.00;57768.22;4979154;28;20060;-67
2022/02/22 09:12:35;;;;;;;27.40;5.65;;;;;;;-146.41;100.00;57768.22;4981661;28;20050;-67
2022/02/22 09:15:06;;;;;;;18.67;4.63;;;;;;;-146.41;100.00;57768.22;4979579;28;20212;-67
2022/02/22 09:17:34;;;;;;;19.63;4.63;;;;;;;-146.41;100.00;57768.22;4975512;28;20139;-67
2022/02/22 09:20:02;;;;;;;19.55;4.15;;;;;;;-146.41;100.00;57768.22;4978291;28;20519;-67
2022/02/22 09:22:30;;;;;;;22.00;5.38;;;;;;;-146.41;100.00;57768.22;4976772;28;20537;-67
2022/02/22 09:24:57;;;;;;;25.73;5.18;;;;;;;-146.41;100.00;57768.22;4983185;28;20046;-67
2022/02/22 09:27:25;;;;;;;29.38;7.13;;;;;;;-146.41;100.00;57768.22;4975481;28;20117;-67
2022/02/22 09:29:53;;;;;;;27.23;6.50;;;;;;;-146.41;100.00;57768.22;4965447;28;20149;-67
2022/02/22 09:32:20;;;;;;;30.98;7.78;;;;;;;-146.41;100.00;57768.22;4976923;28;20492;-67
2022/02/22 09:34:48;;;;;;;22.90;6.22;;;;;;;-146.41;100.00;57768.22;4974556;28;20082;-67
2022/02/22 09:37:16;;;;;;;25.17;7.88;;;;;;;-146.41;100.00;57768.22;4980515;28;20180;-67
2022/02/22 09:39:44;;;;;;;30.00;7.65;;;;;;;-146.41;100.00;57768.22;4975766;28;20066;-67
2022/02/22 09:42:12;;;;;;;28.92;7.05;;;;;;;-146.41;100.00;57768.22;4981129;28;20058;-67
2022/02/22 09:44:40;;;;;;;23.35;7.00;;;;;;;-146.41;100.00;57768.22;4977107;28;20043;-67
2022/02/22 09:47:09;;;;;;;27.58;6.75;;;;;;;-146.41;100.00;57768.22;4978666;28;20057;-67
2022/02/22 09:49:36;;;;;;;24.42;6.70;;;;;;;-146.41;100.00;57768.22;4975427;28;20085;-67
2022/02/22 09:52:05;;;;;;;25.58;6.43;;;;;;;-146.41;100.00;57768.22;4976701;28;20059;-67
2022/02/22 09:54:33;;;;;;;23.35;5.63;;;;;;;-146.41;100.00;57768.22;4980468;28;20061;-67
2022/02/22 09:57:01;;;;;;;23.05;5.18;;;;;;;-146.41;100.00;57768.22;4976344;28;20149;-67
2022/02/22 09:59:28;;;;;;;17.40;5.03;;;;;;;-146.41;100.00;57768.22;4980891;28;20532;-67
2022/02/22 10:01:57;;;;;;;26.00;4.40;;;;;;;-146.41;100.00;57768.22;4980026;28;20066;-67
2022/02/22 10:04:26;;;;;;;24.40;5.30;;;;;;;-146.41;100.00;57768.22;4979453;28;20150;-67
2022/02/22 10:07:02;;;;;;;24.67;4.05;;;;;;;-146.41;100.00;57768.22;4976846;28;20093;-67
2022/02/22 10:09:30;;;;;;;28.63;4.30;;;;;;;-146.41;100.00;57768.22;4978581;28;20089;-67
2022/02/22 10:11:58;;;;;;;20.70;3.90;;;;;;;-146.41;100.00;57768.22;4975793;28;20192;-67
2022/02/22 10:14:25;;;;;;;33.08;4.53;;;;;;;-146.41;100.00;57768.22;4980126;28;20054;-67
2022/02/22 10:16:55;;;;;;;26.45;4.68;;;;;;;-146.41;100.00;57768.22;4976349;28;20491;-67
2022/02/22 10:19:29;;;;;;;19.95;3.50;;;;;;;-146.41;100.00;57768.22;4981155;28;20074;-67
2022/02/22 10:21:57;;;;;;;;;;;;;;;-146.41;100.00;57768.22;4983999;28;20053;-67
2022/02/22 10:24:27;;;;;;;30.10;4.63;;;;;;;-146.41;100.00;57768.22;4985108;28;19953;-67
2022/02/22 10:27:08;;;;;;;23.70;3.83;;;;;;;-146.41;100.00;57768.22;4984654;28;20052;-67
2022/02/22 10:29:37;;;;;;;26.25;4.90;;;;;;;-146.41;100.00;57768.22;4980845;28;20042;-66
2022/02/22 10:32:16;;;;;;;23.83;5.70;;;;;;;-146.41;100.00;57768.22;4983410;28;20058;-67
2022/02/22 10:34:44;;;;;;;24.92;4.18;;;;;;;-146.41;100.00;57768.22;4986348;28;20046;-67
2022/02/22 10:37:11;;;;;;;20.60;3.22;;;;;;;-146.41;100.00;57768.22;4985535;28;20132;-67
2022/02/22 10:39:39;;;;;;;27.23;3.50;;;;;;;-146.41;100.00;57768.22;4985546;28;20064;-66
2022/02/22 10:42:07;;;;;;;25.98;4.13;;;;;;;-146.41;100.00;57768.22;4986746;28;20051;-67
2022/02/22 10:44:36;;;;;;;19.38;3.10;;;;;;;-146.41;100.00;57768.22;4974511;28;20136;-67
2022/02/22 10:47:18;;;;;;;21.83;3.25;;;;;;;-146.41;100.00;57768.22;4985465;28;20065;-67
2022/02/22 10:49:48;;;;;;;24.27;4.38;;;;;;;-146.41;100.00;57768.22;4983803;28;20058;-67
2022/02/22 10:52:17;;;;;;;24.77;3.97;;;;;;;-146.41;100.00;57768.22;4985373;28;20488;-67
2022/02/22 10:54:45;;;;;;;21.70;3.50;;;;;;;-146.41;100.00;57768.22;4982325;28;20110;-67
2022/02/22 10:57:12;;;;;;;26.02;4.60;;;;;;;-146.41;100.00;57768.22;4983409;28;20054;-67
2022/02/22 10:59:40;;;;;;;19.85;3.45;;;;;;;-146.41;100.00;57768.22;4983394;28;20073;-67
2022/02/22 11:02:08;;;;;;;27.20;4.22;;;;;;;-146.41;100.00;57768.22;4985289;28;20138;-67
2022/02/22 11:04:36;;;;;;;18.63;3.40;;;;;;;-146.41;100.00;57768.22;4985762;28;20086;-67